createdAt,value
2023-12-28T00:04:15.894Z,67.70
2023-12-28T00:09:19.254Z,67.70
2023-12-28T00:14:23.027Z,67.50
2023-12-28T00:19:27.749Z,67.50
2023-12-28T00:24:31.020Z,67.60
2023-12-28T00:29:35.675Z,67.50
2023-12-28T00:34:41.723Z,67.30
2023-12-28T00:39:45.705Z,67.50
2023-12-28T00:44:49.618Z,68.30
2023-12-28T00:49:54.577Z,67.50
2023-12-28T00:54:58.081Z,67.60
2023-12-28T01:00:01.511Z,67.50
2023-12-28T01:05:06.736Z,67.50
2023-12-28T01:10:10.198Z,67.70
2023-12-28T01:15:13.736Z,67.70
2023-12-28T01:20:18.489Z,68.00
2023-12-28T01:25:21.737Z,68.00
2023-12-28T01:30:25.325Z,68.00
2023-12-28T01:35:30.069Z,69.00
2023-12-28T01:40:33.409Z,68.30
2023-12-28T01:45:36.775Z,68.30
2023-12-28T01:50:42.262Z,68.50
2023-12-28T01:55:45.844Z,68.80
2023-12-28T02:00:49.916Z,68.70
2023-12-28T02:05:54.671Z,68.70
2023-12-28T02:10:58.173Z,68.90
2023-12-28T02:16:05.784Z,68.70
2023-12-28T02:21:11.697Z,69.20
2023-12-28T02:26:16.282Z,69.10
2023-12-28T02:31:27.526Z,69.20
2023-12-28T02:36:31.303Z,69.50
2023-12-28T02:41:36.478Z,69.30
2023-12-28T02:46:41.196Z,69.50
2023-12-28T02:51:44.593Z,69.50
2023-12-28T02:56:49.381Z,69.40
2023-12-28T03:01:52.615Z,69.50
2023-12-28T03:06:55.920Z,69.50
2023-12-28T03:12:00.636Z,69.60
2023-12-28T03:17:04.069Z,69.70
2023-12-28T03:22:07.335Z,69.60
2023-12-28T03:27:12.171Z,69.70
2023-12-28T03:32:16.807Z,69.80
2023-12-28T03:37:20.121Z,69.80
2023-12-28T03:42:25.205Z,69.70
2023-12-28T03:47:28.626Z,70.00
2023-12-28T03:52:32.247Z,69.90
2023-12-28T03:57:36.970Z,69.90
2023-12-28T04:02:40.265Z,70.00
2023-12-28T04:07:46.540Z,70.00
2023-12-28T04:12:51.242Z,70.00
2023-12-28T04:17:54.733Z,70.10
2023-12-28T04:22:58.021Z,70.00
2023-12-28T04:28:03.294Z,70.00
2023-12-28T04:33:07.275Z,70.20
2023-12-28T04:38:11.380Z,70.00
2023-12-28T04:43:16.141Z,70.10
2023-12-28T04:48:22.153Z,70.20
2023-12-28T04:53:25.604Z,70.20
2023-12-28T04:58:31.278Z,70.20
2023-12-28T05:03:35.152Z,70.40
2023-12-28T05:08:38.542Z,70.30
2023-12-28T05:13:43.141Z,70.30
2023-12-28T05:18:46.644Z,70.50
2023-12-28T05:23:50.024Z,70.40
2023-12-28T05:28:54.642Z,70.40
2023-12-28T05:33:59.587Z,70.60
2023-12-28T05:39:03.696Z,70.40
2023-12-28T05:44:08.636Z,71.40
2023-12-28T05:49:12.065Z,70.60
2023-12-28T05:54:15.352Z,70.50
2023-12-28T05:59:20.095Z,70.60
2023-12-28T06:04:23.493Z,70.80
2023-12-28T06:09:28.965Z,70.60
2023-12-28T06:14:33.651Z,70.70
2023-12-28T06:19:37.109Z,70.80
2023-12-28T06:24:41.607Z,70.70
2023-12-28T06:29:46.391Z,70.70
2023-12-28T06:34:50.483Z,71.70
2023-12-28T06:39:53.930Z,70.70
2023-12-28T06:44:58.505Z,70.60
2023-12-28T06:50:01.800Z,70.80
2023-12-28T06:55:05.520Z,70.80
2023-12-28T07:00:11.778Z,70.80
2023-12-28T07:05:15.355Z,70.90
2023-12-28T07:10:18.707Z,70.80
2023-12-28T07:15:23.402Z,70.70
2023-12-28T07:20:27.712Z,70.80
2023-12-28T07:25:31.012Z,70.80
2023-12-28T07:30:35.692Z,70.80
2023-12-28T07:35:39.194Z,70.90
2023-12-28T07:40:42.556Z,70.80
2023-12-28T07:45:47.398Z,70.80
2023-12-28T07:50:52.963Z,71.00
2023-12-28T07:55:57.282Z,70.80
2023-12-28T08:01:02.161Z,70.80
2023-12-28T08:06:06.438Z,71.00
2023-12-28T08:11:09.781Z,71.00
2023-12-28T08:16:14.449Z,71.00
2023-12-28T08:21:17.692Z,71.20
2023-12-28T08:26:20.990Z,71.10
2023-12-28T08:31:25.665Z,71.00
2023-12-28T08:36:29.235Z,71.10
2023-12-28T08:41:32.535Z,71.00
2023-12-28T08:46:37.195Z,71.00
2023-12-28T08:51:43.667Z,71.00
2023-12-28T08:56:52.528Z,70.80
2023-12-28T09:01:58.321Z,70.70
2023-12-28T09:07:02.208Z,70.70
2023-12-28T09:12:06.103Z,70.70
2023-12-28T09:17:10.695Z,71.10
2023-12-28T09:22:14.004Z,72.20
2023-12-28T09:27:17.409Z,71.70
2023-12-28T09:32:23.387Z,73.40
2023-12-28T09:37:26.734Z,72.90
2023-12-28T09:42:37.344Z,72.30
2023-12-28T09:47:42.231Z,72.10
2023-12-28T09:52:45.500Z,71.60
2023-12-28T09:57:49.546Z,71.20
2023-12-28T10:02:54.813Z,71.00
2023-12-28T10:07:59.289Z,70.90
2023-12-28T10:13:03.704Z,70.70
2023-12-28T10:18:08.911Z,70.60
2023-12-28T10:23:13.552Z,70.60
2023-12-28T10:28:19.913Z,70.60
2023-12-28T10:33:25.139Z,70.60
2023-12-28T10:38:34.511Z,70.60
2023-12-28T10:43:47.665Z,70.60
2023-12-28T10:48:57.431Z,70.70
2023-12-28T10:54:09.871Z,74.60
2023-12-28T10:59:31.287Z,76.30
2023-12-28T11:04:43.486Z,74.00
2023-12-28T11:09:47.490Z,75.30
2023-12-28T11:14:54.030Z,74.60
2023-12-28T11:19:59.331Z,73.20
2023-12-28T11:25:02.727Z,72.20
2023-12-28T11:30:07.397Z,76.20
2023-12-28T11:35:14.793Z,74.80
2023-12-28T11:40:21.037Z,72.80
2023-12-28T11:45:27.686Z,71.50
2023-12-28T11:50:33.223Z,70.50
2023-12-28T11:55:36.509Z,69.70
2023-12-28T12:00:39.944Z,69.40
2023-12-28T12:05:45.919Z,69.10
2023-12-28T12:10:49.170Z,68.90
2023-12-28T12:15:57.056Z,68.70
2023-12-28T12:21:03.945Z,68.60
2023-12-28T12:26:10.346Z,68.60
2023-12-28T12:31:14.610Z,68.60
2023-12-28T12:36:20.175Z,68.60
2023-12-28T12:41:23.621Z,68.60
2023-12-28T12:46:27.209Z,69.60
2023-12-28T12:51:32.465Z,68.90
2023-12-28T12:56:36.110Z,69.00
2023-12-28T13:01:39.434Z,69.10
2023-12-28T13:06:44.293Z,69.10
2023-12-28T13:11:51.507Z,69.30
2023-12-28T13:16:58.364Z,69.30
2023-12-28T13:22:04.147Z,69.40
2023-12-28T13:27:07.727Z,69.50
2023-12-28T13:32:11.401Z,70.70
2023-12-28T13:37:16.226Z,69.90
2023-12-28T13:42:19.471Z,69.90
2023-12-28T13:47:22.750Z,69.90
2023-12-28T13:52:27.582Z,70.00
2023-12-28T13:57:32.144Z,69.80
2023-12-28T14:02:35.446Z,69.70
2023-12-28T14:07:40.137Z,69.90
2023-12-28T14:12:43.523Z,70.00
2023-12-28T14:17:46.968Z,70.00
2023-12-28T14:22:52.275Z,70.10
2023-12-28T14:27:56.348Z,70.30
2023-12-28T14:33:00.929Z,70.30
2023-12-28T14:38:06.840Z,70.30
2023-12-28T14:43:10.288Z,70.50
2023-12-28T14:48:13.871Z,70.50
2023-12-28T14:53:19.100Z,70.60
2023-12-28T14:58:23.490Z,70.70
2023-12-28T15:03:26.945Z,70.50
2023-12-28T15:08:31.582Z,70.60
2023-12-28T15:13:35.663Z,70.80
2023-12-28T15:18:41.191Z,70.70
2023-12-28T15:23:46.667Z,70.80
2023-12-28T15:28:50.217Z,70.90
2023-12-28T15:33:54.166Z,70.90
2023-12-28T15:38:58.938Z,70.90
2023-12-28T15:44:02.134Z,71.10
2023-12-28T15:49:06.087Z,71.10
2023-12-28T15:54:10.726Z,71.20
2023-12-28T15:59:14.117Z,71.30
2023-12-28T16:04:17.667Z,71.20
2023-12-28T16:09:23.074Z,71.30
2023-12-28T16:14:27.131Z,71.30
2023-12-28T16:19:31.121Z,71.30
2023-12-28T16:24:35.983Z,71.30
2023-12-28T16:29:39.359Z,71.60
2023-12-28T16:34:42.746Z,71.50
2023-12-28T16:39:47.452Z,71.50
2023-12-28T16:44:50.707Z,71.60
2023-12-28T16:49:54.098Z,71.50
2023-12-28T16:54:58.890Z,71.50
2023-12-28T17:00:10.442Z,71.60
2023-12-28T17:05:16.002Z,71.50
2023-12-28T17:10:22.359Z,71.60
2023-12-28T17:15:29.060Z,71.80
2023-12-28T17:20:33.090Z,71.80
2023-12-28T17:25:44.950Z,72.40
2023-12-28T17:30:49.352Z,71.80
2023-12-28T17:35:53.132Z,71.50
2023-12-28T17:40:58.580Z,71.50
2023-12-28T17:46:11.003Z,71.50
2023-12-28T17:51:15.618Z,71.80
2023-12-28T17:56:20.398Z,71.40
2023-12-28T18:01:24.944Z,71.50
2023-12-28T18:06:28.399Z,71.30
2023-12-28T18:11:33.928Z,71.30
2023-12-28T18:16:37.482Z,71.50
2023-12-28T18:21:44.282Z,71.30
2023-12-28T18:26:49.094Z,71.50
2023-12-28T18:31:53.375Z,71.70
2023-12-28T18:36:58.248Z,71.80
2023-12-28T18:42:03.758Z,71.80
2023-12-28T18:47:09.080Z,72.00
2023-12-28T18:52:13.590Z,72.00
2023-12-28T18:57:19.921Z,72.10
2023-12-28T19:02:24.772Z,72.20
2023-12-28T19:07:29.975Z,72.10
2023-12-28T19:12:35.992Z,72.00
2023-12-28T19:17:42.717Z,72.10
2023-12-28T19:22:47.822Z,72.90
2023-12-28T19:27:54.086Z,72.20
2023-12-28T19:32:58.898Z,72.10
2023-12-28T19:38:04.387Z,72.10
2023-12-28T19:43:11.248Z,72.10
2023-12-28T19:48:16.259Z,72.10
2023-12-28T19:53:20.814Z,72.10
2023-12-28T19:58:27.030Z,72.10
2023-12-28T20:03:32.165Z,72.10
2023-12-28T20:08:37.491Z,72.00
2023-12-28T20:13:45.824Z,72.00
2023-12-28T20:18:50.631Z,73.00
2023-12-28T20:23:54.952Z,72.00
2023-12-28T20:29:00.213Z,72.10
2023-12-28T20:34:04.817Z,72.10
2023-12-28T20:39:09.928Z,72.00
2023-12-28T20:44:17.668Z,71.90
2023-12-28T20:49:34.640Z,72.20
2023-12-28T20:54:48.361Z,72.00
2023-12-28T20:59:55.181Z,71.90
2023-12-28T21:04:58.783Z,71.90
2023-12-28T21:10:02.553Z,71.80
2023-12-28T21:15:09.471Z,71.80
2023-12-28T21:20:13.389Z,72.00
2023-12-28T21:25:17.006Z,72.00
2023-12-28T21:30:21.770Z,72.10
2023-12-28T21:35:25.132Z,72.10
2023-12-28T21:40:29.464Z,72.10
2023-12-28T21:45:34.401Z,72.10
2023-12-28T21:50:38.292Z,72.10
2023-12-28T21:55:41.607Z,72.20
2023-12-28T22:00:46.992Z,72.10
2023-12-28T22:05:50.323Z,72.10
2023-12-28T22:10:53.623Z,71.90
2023-12-28T22:15:59.654Z,71.80
2023-12-28T22:21:03.087Z,71.80
2023-12-28T22:26:06.394Z,71.70
2023-12-28T22:31:11.734Z,71.50
2023-12-28T22:36:15.171Z,71.50
2023-12-28T22:41:18.605Z,71.50
2023-12-28T22:46:23.600Z,71.50
2023-12-28T22:51:27.217Z,71.50
2023-12-28T22:56:30.578Z,71.50
2023-12-28T23:01:35.608Z,71.50
2023-12-28T23:06:38.996Z,71.50
2023-12-28T23:11:43.050Z,71.50
2023-12-28T23:16:48.235Z,71.50
2023-12-28T23:21:51.580Z,71.60
2023-12-28T23:26:55.848Z,71.60
2023-12-28T23:32:00.740Z,71.70
2023-12-28T23:37:04.190Z,71.70
2023-12-28T23:42:08.415Z,71.70
2023-12-28T23:47:13.091Z,71.70
2023-12-28T23:52:16.475Z,71.60
2023-12-28T23:57:19.732Z,71.50
